Startpagina
METAR-TAF:

METAR-TAF

Vliegvelden :

Weno, Weno Island, Micronesië

breedte: 07-28N, lengte: 151-51E, hoogte: 3 m

Actueel weer

Dit bericht is 21 minuten geleden gemaakt, om 06:51 UTC
Wind 8 kt uit het noordoosten
Temperatuur 29°C
Vochtigheid 79%
Druk 1009 hPa
Zicht: 24.1 km
Weinig wolken op 1400 ft
Verspreide wolken op 28000 ft

METAR: PTKK 270651Z 04008KT 15SM FEW014 SCT280 29/25 A2980 RMK SLP094 T02940249

Tijdstip: 17:12 (07:12 UTC)

Verwachting

Dit bericht is 1 uur en het 39 minuten geleden gemaakt, om 05:33 UTC
Verwachting geldig van 27 om 06 UTC tot 28 om 06 UTC
Wind 10 kt uit het noordoosten
Zicht: 10 km
Verspreide wolken op 1400 ft
Verspreide wolken op 12000 ft
buien in de omgeving

TAF: PTKK 270533Z 2706/2806 04010KT P6SM VCSH SCT014 SCT120

Waarnemingen en weersverwachtingen van meer dan 4000 vliegvelden (METAR en TAF).

De beschikbare stations zijn de gele en rode punten op de kaart.

Ga met uw muis naar het station om de naam te zien.

Klik dan om waarnemingen en weersverwachtingen te zien.

kaart wijzigen: klik op de groene knoppen met een zwart kruis om in te zoomen, op de groene knop met een streepje om uit te zoomen of op de groene pijlen voor aangrenzende kaarten.


METAR-TAF: